Airfield :
LOGIN :

Register | Disclaimer

   EN    FR    IT 

 










Legend :    VFR   Marginal VFR   IFR   Intensive IFR   Very Intensive IFR
Visi :
Ceiling :
>= 8 km
>= 3000ft
5 to 8 km
1000 to 3000 ft
1500m to 5 km
500 to 1000 ft
800 to 1500m
200 to 500 ft
< 800m
< 200 ft
Symbols :   Thunderstorms  Fog  Heavy snow  Heavy precipitations  Wind > 20 kt
SIGMETs :     Misc.  Thunderstorms  Icing  Turbulence  Mountain Waves  Volcanic Ashes







- Airport Elevation : 383 ft
- IATA code : UDJ


UKLU - Uzhhorod

CURRENT METAR :
  • 181200Z 12001MPS 9999 OVC014 03/02 Q1012 R10/290339 NOSIG

EXPIRED METARs :
  • 181130Z 11002MPS 080V140 9999 OVC012 03/02 Q1012 R10/290339 NOSIG
  • 181100Z VRB01MPS 9999 OVC015 03/02 Q1012 R10/290339 NOSIG
  • 181030Z 10003MPS 9999 OVC015 03/02 Q1012 R10/290339 NOSIG
  • 181000Z 11004MPS 9999 OVC015 03/02 Q1011 R10/290339 NOSIG
  • 180930Z 12002MPS 070V170 9999 -RA OVC014 03/01 Q1012 R10/290339 NOSIG

TAF TAF UKLU
Valid from the 18 at 12:00 until the 18 at 21:00 UTC


181102Z 1812/1821 10005MPS 9999 OVC015 TX02/1812Z TNM02/1821Z
TEMPO 1812/1818 32005MPS 2000 -SHRASN BKN007 SCT015CB
No reported NOTAMs for that airfield.



MET'MAP, your aeronautical weather chart ! - Copyright ORBIFLY December 2007 - Disclaimer

ORBIFLY MET'MAP TEAM :

Programming & Development : Alexandra Zaïnal
Concept & Development : Baudouin d'Aumeries
Co-Development & Prog : Marc-Olivier Méhu
Technical & hardware support : Manuel Goepfert

Contact : metmap@orbifly.com




SOURCES & CREDITS :

   NOAA